createdAt,value
2023-04-21T00:01:53.227Z,101421.53
2023-04-21T00:04:20.989Z,101414.97
2023-04-21T00:06:48.739Z,101417.69
2023-04-21T00:09:17.120Z,101422.25
2023-04-21T00:11:44.911Z,101418.41
2023-04-21T00:14:13.867Z,101412.09
2023-04-21T00:16:41.565Z,101417.56
2023-04-21T00:19:09.345Z,101417.03
2023-04-21T00:21:37.160Z,101418.63
2023-04-21T00:24:04.969Z,101411.03
2023-04-21T00:26:32.623Z,101413.41
2023-04-21T00:29:00.670Z,101409.25
2023-04-21T00:31:29.704Z,101412.69
2023-04-21T00:33:58.648Z,101410.13
2023-04-21T00:36:28.227Z,101411.00
2023-04-21T00:38:55.987Z,101414.69
2023-04-21T00:41:24.195Z,101408.56
2023-04-21T00:44:01.201Z,101408.91
2023-04-21T00:46:30.508Z,101411.41
2023-04-21T00:48:58.308Z,101406.03
2023-04-21T00:51:26.577Z,101409.56
2023-04-21T00:53:54.679Z,101415.59
2023-04-21T00:56:22.298Z,101411.47
2023-04-21T00:58:50.461Z,101415.09
2023-04-21T01:01:18.343Z,101413.97
2023-04-21T01:03:47.636Z,101401.81
2023-04-21T01:06:15.618Z,101400.69
2023-04-21T01:08:43.304Z,101409.41
2023-04-21T01:11:12.082Z,101405.34
2023-04-21T01:13:41.423Z,101407.97
2023-04-21T01:16:09.138Z,101404.13
2023-04-21T01:18:37.464Z,101401.09
2023-04-21T01:21:07.473Z,101404.69
2023-04-21T01:23:36.901Z,101397.47
2023-04-21T01:26:04.700Z,101396.25
2023-04-21T01:28:37.287Z,101403.69
2023-04-21T01:31:07.033Z,101394.97
2023-04-21T01:33:34.658Z,101393.06
2023-04-21T01:36:02.285Z,101392.06
2023-04-21T01:38:29.898Z,101396.41
2023-04-21T01:41:01.188Z,101385.78
2023-04-21T01:43:28.828Z,101392.44
2023-04-21T01:45:57.549Z,101389.03
2023-04-21T01:48:25.229Z,101388.47
2023-04-21T01:50:52.802Z,101396.50
2023-04-21T01:53:20.565Z,101386.94
2023-04-21T01:55:48.233Z,101385.06
2023-04-21T01:58:17.186Z,101383.38
2023-04-21T02:00:44.809Z,101379.19
2023-04-21T02:03:12.552Z,101378.94
2023-04-21T02:05:40.243Z,101380.81
2023-04-21T02:08:07.913Z,101376.78
2023-04-21T02:10:35.593Z,101382.44
2023-04-21T02:13:03.517Z,101366.34
2023-04-21T02:15:33.607Z,101364.66
2023-04-21T02:18:01.395Z,101368.75
2023-04-21T02:20:29.156Z,101362.25
2023-04-21T02:22:56.757Z,101366.47
2023-04-21T02:25:24.364Z,101355.16
2023-04-21T02:27:51.908Z,101364.00
2023-04-21T02:30:20.603Z,101354.25
2023-04-21T02:32:49.651Z,101350.66
2023-04-21T02:35:17.270Z,101351.63
2023-04-21T02:37:44.849Z,101353.38
2023-04-21T02:40:12.921Z,101355.34
2023-04-21T02:42:40.547Z,101343.81
2023-04-21T02:45:08.801Z,101366.84
2023-04-21T02:47:36.768Z,101354.41
2023-04-21T02:50:06.651Z,101362.47
2023-04-21T02:52:36.511Z,101349.63
2023-04-21T02:55:04.410Z,101360.16
2023-04-21T02:57:32.032Z,101356.72
2023-04-21T03:00:01.013Z,101364.69
2023-04-21T03:02:28.890Z,101357.66
2023-04-21T03:04:56.630Z,101363.69
2023-04-21T03:07:25.738Z,101364.47
2023-04-21T03:09:53.449Z,101354.25
2023-04-21T03:12:21.872Z,101351.16
2023-04-21T03:14:49.496Z,101355.91
2023-04-21T03:17:17.083Z,101358.91
2023-04-21T03:19:44.710Z,101354.81
2023-04-21T03:22:12.806Z,101348.41
2023-04-21T03:24:41.820Z,101358.53
2023-04-21T03:27:11.002Z,101353.09
2023-04-21T03:29:38.850Z,101359.28
2023-04-21T03:32:06.508Z,101363.13
2023-04-21T03:34:34.268Z,101366.13
2023-04-21T03:37:05.338Z,101364.88
2023-04-21T03:39:32.983Z,101366.19
2023-04-21T03:42:02.442Z,101360.94
2023-04-21T03:44:30.616Z,101360.78
2023-04-21T03:46:58.631Z,101360.38
2023-04-21T03:49:26.213Z,101357.31
2023-04-21T03:51:53.872Z,101360.50
2023-04-21T03:54:21.512Z,101361.06
2023-04-21T03:56:49.097Z,101355.16
2023-04-21T03:59:18.453Z,101357.88
2023-04-21T04:01:46.547Z,101367.25
2023-04-21T04:04:14.441Z,101370.19
2023-04-21T04:06:42.274Z,101366.13
2023-04-21T04:09:09.886Z,101362.56
2023-04-21T04:11:37.488Z,101367.97
2023-04-21T04:14:05.047Z,101358.06
2023-04-21T04:16:34.080Z,101368.94
2023-04-21T04:19:01.672Z,101370.28
2023-04-21T04:21:29.420Z,101376.78
2023-04-21T04:23:57.567Z,101372.56
2023-04-21T04:26:25.797Z,101376.09
2023-04-21T04:28:53.380Z,101381.72
2023-04-21T04:31:21.560Z,101366.44
2023-04-21T04:33:52.174Z,101373.41
2023-04-21T04:36:22.458Z,101371.72
2023-04-21T04:38:50.065Z,101377.91
2023-04-21T04:41:17.707Z,101377.63
2023-04-21T04:43:45.278Z,101380.09
2023-04-21T04:46:13.405Z,101381.25
2023-04-21T04:48:41.262Z,101384.38
2023-04-21T04:51:10.312Z,101389.13
2023-04-21T04:53:37.991Z,101393.38
2023-04-21T04:56:05.681Z,101384.16
2023-04-21T04:58:33.284Z,101392.44
2023-04-21T05:01:01.007Z,101390.41
2023-04-21T05:03:28.868Z,101388.53
2023-04-21T05:05:57.476Z,101397.28
2023-04-21T05:08:26.482Z,101386.09
2023-04-21T05:10:54.109Z,101383.38
2023-04-21T05:13:21.968Z,101389.56
2023-04-21T05:15:49.557Z,101387.97
2023-04-21T05:18:17.124Z,101398.25
2023-04-21T05:20:44.675Z,101387.50
2023-04-21T05:23:12.270Z,101387.09
2023-04-21T05:25:41.347Z,101389.34
2023-04-21T05:28:08.953Z,101391.34
2023-04-21T05:30:36.879Z,101396.47
2023-04-21T05:33:04.606Z,101395.44
2023-04-21T05:35:32.252Z,101394.88
2023-04-21T05:37:59.869Z,101395.53
2023-04-21T05:40:27.461Z,101392.94
2023-04-21T05:42:56.438Z,101393.34
2023-04-21T05:45:24.089Z,101398.03
2023-04-21T05:47:51.860Z,101388.03
2023-04-21T05:50:19.608Z,101394.22
2023-04-21T05:52:47.291Z,101394.81
2023-04-21T05:55:14.934Z,101394.09
2023-04-21T05:57:42.524Z,101396.50
2023-04-21T06:00:12.450Z,101384.84
2023-04-21T06:02:40.215Z,101396.19
2023-04-21T06:05:08.380Z,101394.25
2023-04-21T06:07:37.215Z,101393.78
2023-04-21T06:10:05.192Z,101394.47
2023-04-21T06:12:32.865Z,101394.84
2023-04-21T06:15:00.518Z,101382.81
2023-04-21T06:17:29.652Z,101398.50
2023-04-21T06:19:57.373Z,101390.53
2023-04-21T06:22:25.008Z,101383.03
2023-04-21T06:24:52.782Z,101385.31
2023-04-21T06:27:20.406Z,101371.00
2023-04-21T06:29:48.150Z,101372.31
2023-04-21T06:32:16.131Z,101372.44
2023-04-21T06:34:45.170Z,101374.50
2023-04-21T06:37:12.741Z,101382.03
2023-04-21T06:39:40.363Z,101377.97
2023-04-21T06:42:08.060Z,101375.69
2023-04-21T06:44:43.014Z,101368.72
2023-04-21T06:47:10.688Z,101372.25
2023-04-21T06:49:38.509Z,101370.19
2023-04-21T06:52:07.518Z,101374.00
2023-04-21T06:54:35.145Z,101368.69
2023-04-21T06:57:02.911Z,101365.44
2023-04-21T06:59:30.599Z,101364.34
2023-04-21T07:01:58.268Z,101374.63
2023-04-21T07:04:29.946Z,101365.78
2023-04-21T07:06:57.662Z,101368.13
2023-04-21T07:09:28.340Z,101373.34
2023-04-21T07:11:56.087Z,101360.50
2023-04-21T07:14:23.756Z,101363.81
2023-04-21T07:16:51.416Z,101365.56
2023-04-21T07:19:19.256Z,101359.41
2023-04-21T07:21:47.032Z,101359.88
2023-04-21T07:24:14.899Z,101357.72
2023-04-21T07:26:43.965Z,101353.91
2023-04-21T07:29:11.575Z,101346.25
2023-04-21T07:31:39.207Z,101353.97
2023-04-21T07:34:06.925Z,101352.25
2023-04-21T07:36:34.595Z,101352.66
2023-04-21T07:39:02.186Z,101353.50
2023-04-21T07:41:30.033Z,101353.84
2023-04-21T07:43:59.067Z,101350.22
2023-04-21T07:46:30.418Z,101345.38
2023-04-21T07:48:58.240Z,101350.69
2023-04-21T07:51:25.995Z,101351.63
2023-04-21T07:53:53.598Z,101349.25
2023-04-21T07:56:21.224Z,101347.28
2023-04-21T07:58:48.840Z,101342.81
2023-04-21T08:01:17.945Z,101344.72
2023-04-21T08:03:45.727Z,101344.88
2023-04-21T08:06:13.577Z,101347.53
2023-04-21T08:08:41.322Z,101352.34
2023-04-21T08:11:10.834Z,101350.22
2023-04-21T08:13:38.733Z,101341.91
2023-04-21T08:16:07.246Z,101344.50
2023-04-21T08:18:36.541Z,101338.97
2023-04-21T08:21:04.291Z,101338.81
2023-04-21T08:23:32.566Z,101334.78
2023-04-21T08:26:00.458Z,101341.94
2023-04-21T08:28:28.143Z,101341.25
2023-04-21T08:30:55.712Z,101341.22
2023-04-21T08:33:23.352Z,101327.78
2023-04-21T08:36:03.929Z,101339.03
2023-04-21T08:38:33.379Z,101329.69
2023-04-21T08:41:01.277Z,101333.72
2023-04-21T08:43:29.493Z,101321.94
2023-04-21T08:45:57.196Z,101331.94
2023-04-21T08:48:25.101Z,101328.84
2023-04-21T08:50:54.738Z,101329.72
2023-04-21T08:53:22.689Z,101324.19
2023-04-21T08:56:03.223Z,101325.28
2023-04-21T08:58:38.185Z,101323.31
2023-04-21T09:01:06.177Z,101320.56
2023-04-21T09:03:34.210Z,101319.50
2023-04-21T09:06:05.460Z,101317.94
2023-04-21T09:08:33.662Z,101321.50
2023-04-21T09:11:01.668Z,101317.69
2023-04-21T09:13:33.916Z,101321.44
2023-04-21T09:16:02.627Z,101322.97
2023-04-21T09:18:35.154Z,101312.31
2023-04-21T09:21:08.483Z,101315.84
2023-04-21T09:23:42.517Z,101323.97
2023-04-21T09:26:10.497Z,101310.75
2023-04-21T09:28:38.355Z,101319.34
2023-04-21T09:31:06.059Z,101323.03
2023-04-21T09:33:39.475Z,101311.53
2023-04-21T09:36:22.118Z,101314.44
2023-04-21T09:41:29.663Z,101304.81
2023-04-21T09:44:01.233Z,101303.56
2023-04-21T09:46:28.914Z,101308.19
2023-04-21T09:48:57.035Z,101298.41
2023-04-21T09:51:42.682Z,101303.16
2023-04-21T09:54:29.261Z,101302.56
2023-04-21T09:56:59.416Z,101301.88
2023-04-21T09:59:28.161Z,101302.47
2023-04-21T10:01:55.819Z,101299.69
2023-04-21T10:04:24.196Z,101304.78
2023-04-21T10:06:53.504Z,101299.44
2023-04-21T10:09:21.988Z,101293.38
2023-04-21T10:11:49.668Z,101295.31
2023-04-21T10:14:17.510Z,101295.59
2023-04-21T10:16:45.372Z,101297.88
2023-04-21T10:19:35.493Z,101294.38
2023-04-21T10:22:04.480Z,101280.34
2023-04-21T10:24:32.171Z,101270.50
2023-04-21T10:27:02.071Z,101285.56
2023-04-21T10:29:40.086Z,101285.91
2023-04-21T10:32:17.959Z,101273.50
2023-04-21T10:34:45.650Z,101279.66
2023-04-21T10:37:16.186Z,101272.75
2023-04-21T10:39:44.880Z,101270.53
2023-04-21T10:42:25.259Z,101264.06
2023-04-21T10:44:54.225Z,101271.53
2023-04-21T10:47:28.256Z,101262.50
2023-04-21T10:49:56.903Z,101264.06
2023-04-21T10:52:29.004Z,101260.69
2023-04-21T10:55:06.972Z,101248.25
2023-04-21T10:57:35.159Z,101250.41
2023-04-21T11:00:05.790Z,101246.44
2023-04-21T11:02:35.163Z,101246.28
2023-04-21T11:05:06.257Z,101243.16
2023-04-21T11:07:35.294Z,101230.75
2023-04-21T11:10:04.091Z,101232.94
2023-04-21T11:12:32.110Z,101229.59
2023-04-21T11:14:59.752Z,101230.94
2023-04-21T11:17:27.472Z,101223.50
2023-04-21T11:19:55.769Z,101227.34
2023-04-21T11:22:23.916Z,101224.88
2023-04-21T11:24:53.326Z,101212.38
2023-04-21T11:27:22.272Z,101210.91
2023-04-21T11:29:50.198Z,101217.34
2023-04-21T11:32:17.944Z,101222.88
2023-04-21T11:34:45.914Z,101216.22
2023-04-21T11:37:16.333Z,101212.19
2023-04-21T11:39:44.383Z,101205.59
2023-04-21T11:42:13.474Z,101210.47
2023-04-21T11:44:41.955Z,101195.06
2023-04-21T11:47:15.844Z,101201.19
2023-04-21T11:49:47.488Z,101203.44
2023-04-21T11:52:22.435Z,101198.41
2023-04-21T11:54:50.465Z,101189.81
2023-04-21T11:57:20.567Z,101195.25
2023-04-21T11:59:48.714Z,101195.25
2023-04-21T12:02:22.029Z,101189.47
2023-04-21T12:04:57.908Z,101191.56
2023-04-21T12:07:25.571Z,101182.00
2023-04-21T12:09:53.176Z,101183.69
2023-04-21T12:12:22.406Z,101184.56
2023-04-21T12:14:50.433Z,101180.38
2023-04-21T12:17:18.272Z,101180.97
2023-04-21T12:19:45.992Z,101180.38
2023-04-21T12:22:14.405Z,101168.88
2023-04-21T12:24:42.091Z,101172.66
2023-04-21T12:27:09.779Z,101163.47
2023-04-21T12:29:39.088Z,101172.16
2023-04-21T12:32:07.086Z,101178.19
2023-04-21T12:34:34.963Z,101168.19
2023-04-21T12:37:02.695Z,101163.41
2023-04-21T12:39:30.647Z,101162.94
2023-04-21T12:41:58.759Z,101158.59
2023-04-21T12:44:26.858Z,101154.34
2023-04-21T12:46:57.021Z,101153.03
2023-04-21T12:49:24.597Z,101154.72
2023-04-21T12:51:52.200Z,101149.34
2023-04-21T12:54:19.863Z,101150.03
2023-04-21T12:56:47.472Z,101143.19
2023-04-21T12:59:15.172Z,101142.25
2023-04-21T13:01:43.886Z,101134.09
2023-04-21T13:04:13.150Z,101142.78
2023-04-21T13:06:40.942Z,101138.91
2023-04-21T13:09:08.597Z,101131.38
2023-04-21T13:11:36.211Z,101128.91
2023-04-21T13:14:04.658Z,101126.91
2023-04-21T13:16:32.317Z,101123.09
2023-04-21T13:18:59.976Z,101122.56
2023-04-21T13:21:29.156Z,101113.56
2023-04-21T13:23:57.341Z,101118.25
2023-04-21T13:26:25.772Z,101119.94
2023-04-21T13:28:53.434Z,101111.97
2023-04-21T13:31:21.123Z,101111.38
2023-04-21T13:33:48.827Z,101101.47
2023-04-21T13:36:20.990Z,101098.69
2023-04-21T13:38:50.945Z,101096.94
2023-04-21T13:41:18.579Z,101091.88
2023-04-21T13:43:46.258Z,101089.81
2023-04-21T13:46:14.575Z,101093.09
2023-04-21T13:48:42.249Z,101080.84
2023-04-21T13:51:10.391Z,101079.56
2023-04-21T13:53:38.037Z,101073.06
2023-04-21T13:56:07.911Z,101074.56
2023-04-21T13:58:35.862Z,101068.56
2023-04-21T14:01:04.152Z,101078.56
2023-04-21T14:03:32.045Z,101065.91
2023-04-21T14:05:59.837Z,101058.88
2023-04-21T14:08:27.444Z,101055.34
2023-04-21T14:10:55.023Z,101050.25
2023-04-21T14:13:34.891Z,101053.06
2023-04-21T14:16:05.543Z,101049.81
2023-04-21T14:18:33.932Z,101039.94
2023-04-21T14:21:01.880Z,101043.69
2023-04-21T14:23:29.567Z,101039.19
2023-04-21T14:25:57.129Z,101030.00
2023-04-21T14:28:26.161Z,101034.81
2023-04-21T14:30:53.809Z,101023.91
2023-04-21T14:33:21.563Z,101032.88
2023-04-21T14:35:49.270Z,101022.44
2023-04-21T14:38:17.060Z,101029.47
2023-04-21T14:40:44.841Z,101031.66
2023-04-21T14:43:12.544Z,101024.44
2023-04-21T14:45:42.845Z,101022.09
2023-04-21T14:48:11.793Z,101027.31
2023-04-21T14:50:39.404Z,101003.81
2023-04-21T14:53:07.073Z,101010.00
2023-04-21T14:55:34.653Z,101005.34
2023-04-21T14:58:02.322Z,101001.53
2023-04-21T15:00:31.844Z,101006.66
2023-04-21T15:03:01.084Z,100993.34
2023-04-21T15:05:29.169Z,100999.28
2023-04-21T15:07:56.856Z,100999.59
2023-04-21T15:10:24.507Z,100990.47
2023-04-21T15:12:52.159Z,100984.28
2023-04-21T15:15:19.765Z,100982.06
2023-04-21T15:17:47.370Z,100981.72
2023-04-21T15:20:16.360Z,100982.16
2023-04-21T15:22:43.989Z,100977.72
2023-04-21T15:25:11.581Z,100980.38
2023-04-21T15:27:39.212Z,100978.81
2023-04-21T15:30:07.301Z,100976.44
2023-04-21T15:32:34.938Z,100969.44
2023-04-21T15:35:02.634Z,100968.69
2023-04-21T15:37:31.601Z,100977.16
2023-04-21T15:39:59.287Z,100968.06
2023-04-21T15:42:26.999Z,100966.00
2023-04-21T15:44:55.612Z,100954.38
2023-04-21T15:47:23.627Z,100964.06
2023-04-21T15:49:51.290Z,100954.16
2023-04-21T15:52:18.982Z,100947.25
2023-04-21T15:54:47.974Z,100953.06
2023-04-21T15:57:15.811Z,100950.75
2023-04-21T15:59:43.439Z,100952.50
2023-04-21T16:02:11.748Z,100949.50
2023-04-21T16:04:39.789Z,100949.81
2023-04-21T16:07:07.923Z,100946.63
2023-04-21T16:09:35.528Z,100946.31
2023-04-21T16:12:08.693Z,100948.13
2023-04-21T16:14:53.625Z,100939.25
2023-04-21T16:17:26.436Z,100939.72
2023-04-21T16:19:54.433Z,100927.41
2023-04-21T16:22:22.120Z,100932.19
2023-04-21T16:24:49.867Z,100936.22
2023-04-21T16:27:18.907Z,100924.84
2023-04-21T16:29:46.521Z,100931.53
2023-04-21T16:32:14.252Z,100929.56
2023-04-21T16:34:42.493Z,100925.59
2023-04-21T16:37:10.360Z,100921.78
2023-04-21T16:39:37.908Z,100921.06
2023-04-21T16:42:05.812Z,100926.34
2023-04-21T16:44:34.871Z,100914.47
2023-04-21T16:47:02.584Z,100919.78
2023-04-21T16:49:30.905Z,100910.34
2023-04-21T16:51:58.601Z,100917.09
2023-04-21T16:54:26.277Z,100917.81
2023-04-21T16:56:53.880Z,100912.38
2023-04-21T16:59:23.622Z,100912.03
2023-04-21T17:01:52.610Z,100902.66
2023-04-21T17:04:20.314Z,100901.66
2023-04-21T17:06:48.459Z,100905.84
2023-04-21T17:09:16.058Z,100904.66
2023-04-21T17:11:43.836Z,100904.59
2023-04-21T17:14:12.543Z,100907.97
2023-04-21T17:16:40.207Z,100900.63
2023-04-21T17:19:09.176Z,100913.53
2023-04-21T17:21:36.782Z,100899.31
2023-04-21T17:24:04.542Z,100909.47
2023-04-21T17:26:32.200Z,100915.44
2023-04-21T17:29:00.379Z,100911.28
2023-04-21T17:31:29.352Z,100912.47
2023-04-21T17:33:57.510Z,100906.97
2023-04-21T17:36:27.455Z,100912.72
2023-04-21T17:38:55.546Z,100908.13
2023-04-21T17:41:23.187Z,100911.41
2023-04-21T17:43:50.954Z,100910.69
2023-04-21T17:46:18.645Z,100909.34
2023-04-21T17:48:46.347Z,100918.41
2023-04-21T17:51:14.873Z,100915.31
2023-04-21T17:53:43.874Z,100909.50
2023-04-21T17:56:12.161Z,100907.66
2023-04-21T17:58:40.457Z,100913.53
2023-04-21T18:01:08.258Z,100909.34
2023-04-21T18:03:37.316Z,100912.16
2023-04-21T18:06:05.458Z,100908.44
2023-04-21T18:08:33.099Z,100915.72
2023-04-21T18:11:02.022Z,100908.44
2023-04-21T18:13:29.650Z,100916.28
2023-04-21T18:15:57.601Z,100909.06
2023-04-21T18:18:25.283Z,100916.53
2023-04-21T18:20:52.925Z,100919.19
2023-04-21T18:23:20.528Z,100919.19
2023-04-21T18:25:48.126Z,100917.50
2023-04-21T18:28:17.083Z,100906.38
2023-04-21T18:30:44.732Z,100911.69
2023-04-21T18:33:12.404Z,100917.53
2023-04-21T18:35:41.099Z,100913.78
2023-04-21T18:38:10.323Z,100915.06
2023-04-21T18:40:38.048Z,100911.47
2023-04-21T18:43:05.670Z,100917.94
2023-04-21T18:45:34.938Z,100919.31
2023-04-21T18:48:02.593Z,100918.81
2023-04-21T18:50:30.969Z,100910.94
2023-04-21T18:52:58.929Z,100908.53
2023-04-21T18:55:26.766Z,100915.44
2023-04-21T18:57:54.376Z,100910.78
2023-04-21T19:00:22.112Z,100915.50
2023-04-21T19:02:51.316Z,100913.41
2023-04-21T19:05:19.288Z,100915.91
2023-04-21T19:07:47.339Z,100912.28
2023-04-21T19:10:14.974Z,100910.16
2023-04-21T19:12:42.662Z,100916.63
2023-04-21T19:15:11.752Z,100914.66
2023-04-21T19:17:39.614Z,100907.44
2023-04-21T19:20:09.535Z,100917.50
2023-04-21T19:22:37.453Z,100912.38
2023-04-21T19:25:05.918Z,100908.63
2023-04-21T19:27:33.604Z,100909.81
2023-04-21T19:30:01.757Z,100912.38
2023-04-21T19:32:29.575Z,100905.69
2023-04-21T19:34:57.390Z,100909.38
2023-04-21T19:37:27.988Z,100913.50
2023-04-21T19:39:55.989Z,100910.34
2023-04-21T19:42:23.631Z,100913.63
2023-04-21T19:44:51.326Z,100919.53
2023-04-21T19:47:18.959Z,100909.78
2023-04-21T19:49:46.565Z,100903.69
2023-04-21T19:52:14.227Z,100913.03
2023-04-21T19:54:43.193Z,100909.94
2023-04-21T19:57:10.781Z,100915.22
2023-04-21T19:59:38.667Z,100907.91
2023-04-21T20:02:06.601Z,100911.41
2023-04-21T20:04:34.736Z,100913.38
2023-04-21T20:07:02.492Z,100913.13
2023-04-21T20:09:30.149Z,100911.31
2023-04-21T20:11:59.110Z,100913.00
2023-04-21T20:14:26.727Z,100919.06
2023-04-21T20:16:54.303Z,100910.47
2023-04-21T20:19:22.825Z,100922.25
2023-04-21T20:21:50.814Z,100920.97
2023-04-21T20:24:18.434Z,100910.19
2023-04-21T20:26:45.967Z,100915.19
2023-04-21T20:29:14.991Z,100918.88
2023-04-21T20:31:42.613Z,100921.44
2023-04-21T20:34:10.294Z,100922.50
2023-04-21T20:36:37.933Z,100919.72
2023-04-21T20:39:06.418Z,100924.81
2023-04-21T20:41:34.057Z,100921.94
2023-04-21T20:44:01.688Z,100927.75
2023-04-21T20:46:31.079Z,100931.69
2023-04-21T20:48:58.840Z,100934.94
2023-04-21T20:51:26.891Z,100932.63
2023-04-21T20:53:54.542Z,100933.78
2023-04-21T20:56:22.236Z,100926.78
2023-04-21T20:58:49.841Z,100933.50
2023-04-21T21:01:17.901Z,100929.34
2023-04-21T21:03:47.026Z,100932.69
2023-04-21T21:06:14.753Z,100935.75
2023-04-21T21:08:42.848Z,100934.94
2023-04-21T21:11:11.577Z,100938.75
2023-04-21T21:13:39.372Z,100935.31
2023-04-21T21:16:07.504Z,100932.28
2023-04-21T21:18:35.960Z,100931.03
2023-04-21T21:21:06.578Z,100937.13
2023-04-21T21:23:34.623Z,100933.53
2023-04-21T21:26:02.258Z,100943.47
2023-04-21T21:28:30.381Z,100938.59
2023-04-21T21:30:58.075Z,100939.75
2023-04-21T21:33:25.797Z,100935.84
2023-04-21T21:35:53.433Z,100935.75
2023-04-21T21:38:22.410Z,100933.81
2023-04-21T21:40:50.169Z,100937.63
2023-04-21T21:43:18.299Z,100937.78
2023-04-21T21:45:46.114Z,100940.34
2023-04-21T21:48:14.085Z,100940.44
2023-04-21T21:50:41.986Z,100942.72
2023-04-21T21:53:09.636Z,100934.78
2023-04-21T21:55:38.797Z,100933.25
2023-04-21T21:58:06.563Z,100938.66
2023-04-21T22:00:34.626Z,100940.44
2023-04-21T22:03:02.902Z,100943.34
2023-04-21T22:05:30.812Z,100947.91
2023-04-21T22:07:58.502Z,100944.03
2023-04-21T22:10:26.648Z,100942.88
2023-04-21T22:12:55.815Z,100939.56
2023-04-21T22:15:23.439Z,100945.13
2023-04-21T22:17:51.295Z,100942.94
2023-04-21T22:20:19.263Z,100941.63
2023-04-21T22:22:47.023Z,100941.84
2023-04-21T22:25:14.646Z,100952.28
2023-04-21T22:27:42.452Z,100953.16
2023-04-21T22:30:12.254Z,100948.81
2023-04-21T22:32:39.911Z,100955.03
2023-04-21T22:35:07.696Z,100955.59
2023-04-21T22:37:35.289Z,100954.75
2023-04-21T22:40:04.299Z,100955.63
2023-04-21T22:42:31.913Z,100953.84
2023-04-21T22:45:01.534Z,100957.84
2023-04-21T22:47:31.010Z,100959.09
2023-04-21T22:49:58.690Z,100959.84
2023-04-21T22:52:27.060Z,100960.44
2023-04-21T22:54:54.855Z,100967.66
2023-04-21T22:57:22.625Z,100961.34
2023-04-21T22:59:50.326Z,100967.94
2023-04-21T23:02:17.986Z,100965.88
2023-04-21T23:04:47.214Z,100968.53
2023-04-21T23:07:14.915Z,100967.66
2023-04-21T23:09:42.489Z,100970.84
2023-04-21T23:12:10.141Z,100966.09
2023-04-21T23:14:38.089Z,100967.03
2023-04-21T23:17:05.990Z,100959.59
2023-04-21T23:19:33.579Z,100963.19
2023-04-21T23:22:02.643Z,100960.34
2023-04-21T23:24:30.411Z,100960.63
2023-04-21T23:26:57.982Z,100959.03
2023-04-21T23:29:27.561Z,100963.69
2023-04-21T23:31:55.334Z,100962.69
2023-04-21T23:34:23.064Z,100962.72
2023-04-21T23:36:50.878Z,100957.81
2023-04-21T23:39:21.509Z,100963.91
2023-04-21T23:41:49.598Z,100962.97
2023-04-21T23:44:17.185Z,100953.78
2023-04-21T23:46:44.781Z,100964.88
2023-04-21T23:49:12.409Z,100959.09
2023-04-21T23:51:39.978Z,100954.63
2023-04-21T23:54:09.687Z,100949.19
2023-04-21T23:56:38.650Z,100951.03
2023-04-21T23:59:06.954Z,100952.88
